Pagrindinis puslapis
METAR-TAF:

METAR-TAF

Oro uostai :

Niamėjus, Nigeris

platuma: 13-29N, ilguma: 002-10E, Aukštis: 223 m

Dabartinis oras

Ataskaita buvo paskelbta 1 valandą ir 3 minutes, ne 20:00 UTC
Vėjas 8 kt iš Pietų
Temperatūra 35°C
Drėgmė 34%
Slėgis 1008 hPa
Matomumas 10 km arba daugiau
nėra debesų žemiau 1500 m ir nėra kamuolinių lietaus debesų

METAR: DRRN 062000Z 18008KT CAVOK 35/17 Q1008 NOSIG

Laikas: 22:03 (21:03 UTC)

Prognozė

Ataskaita buvo paskelbta 4 valandos ir 3 minutes, ne 17:00 UTC
Prognozė galioja nuo 06 metu 18 UTC su 07 metu 24 UTC
Vėjas 10 kt iš Vakarų/Šiaurės Vakarų
Matomumas: 8000 m
Mažai debesys ne aukštis 4000 ft
Tikimybė 30% :
Laikinai
nuo 06 metu 18 UTC su 06 metu 20 UTC
Vėjas 25 kt nuo kintamojo kryptimis
Matomumas: 2000 m
Mažai debesys ne aukštis 3300 ft, Liūtiniai kamuoliniai debesys.
Dulkes pustymas, perkūnija

TAF: DRRN 061700Z 0618/0724 30010KT 8000 FEW040 PROB30 TEMPO 0618/0620 VRB25KT 2000 BLDU TS FEW033CB

Orai ataskaitas ir orų prognozės (METAR, TAF).

turimą stotys yra geltonos ir raudonos taškus žemėlapyje.

Perkelti pele per norėdami pamatyti stoties vardą.

Tada spustelėkite, norėdami matyti oro stebėjimo ir prognozės.

Norėdami pakeisti žemėlapį: spustelėkite ant žalios mygtukų su juodo kryžiaus žemyn,; žalią mygtuką su brūkšneliu, jei norite nutolinti; arba žalių rodyklių gretimoms žemėlapius.


METAR-TAF: